Huntley, MT (59037)

8:30 PM MDT on July 27, 2016 (GMT -0600)
MesoWest | | Change Station

Elev 3000 ft 45.92 °N, 108.25 °W | Updated 24 minutes ago

Scattered Clouds
Scattered Clouds
80 °F
Feels Like 80 °F
N
0
Wind Variable Wind from North
Gusts 0.0 mph

Today
High -- | Low -- °F
--% Chance of Precip.
Yesterday
High -- | Low -- °F
Precip. -- in
Pressure 30.03 in
Visibility 10.0 miles
Clouds Few 7500 ft
Scattered Clouds 11000 ft
Heat Index 80 °F
Dew Point 57 °F
Humidity 45%
Rainfall in
Snow Depth Not available.
5:50 AM 8:47 PM
Last Quarter, 37% visible
METAR KBIL 280153Z 01006KT 10SM FEW075 SCT110 24/16 A3011 RMK AO2 SLP168 CB SHRA DSNT NE-E S-SW T02390156 $
Pressure 30.03 in
Visibility 10.0 miles
Clouds Few 7500 ft
Scattered Clouds 11000 ft
Heat Index 80 °F
Dew Point 57 °F
Humidity 45%
Rainfall in
Snow Depth Not available.
5:50 AM 8:47 PM
Last Quarter, 37% visible
METAR KBIL 280153Z 01006KT 10SM FEW075 SCT110 24/16 A3011 RMK AO2 SLP168 CB SHRA DSNT NE-E S-SW T02390156 $

10-Day Weather Forecast

Almanac

Astronomy

Jul. 27, 2016 Rise Set
Actual Time
Civil Twilight
Nautical Twilight
Astronomical Twilight
Moon
Length of Visible Light
Length of Day
Tomorrow will be .
, % of the Moon is Illuminated

Today's Extremes

State Highs State Lows

Community

WunderPhotos

Upload Photos

1,928,013 photos uploaded!

WunderBlog® & News

Nearby

Air Quality

  Air Quality AQ Index Pollutant
Not available.

Snow Depth

Station Depth Elevation

Earthquake Activity

City Distance Mag. Time & Date
Minimum magnitude displayed is 2.5.

Coastal Water Temperatures

Place Temperature

Stations

Nearby Weather Stations

Station Location Temp. Windchill Dew Point Humidity Wind Precip. Elev Updated Type
                   

Watches & Warnings

There are currently no watches in effect.